Flight Track Log - Related Links

Times and Time Zones

All times are in EDT time to prevent confusion due to time zone crossing. See the VH-UUO flight status page for this flight to view local times or setup timezone preferences in your user account.

Time Position Orientation Groundspeed Altitude Reporting Facility
EDT Latitude Longitude Course Direction KTS MPH feet Rate Location/Type
Mon 08:52:05 AM -33.9128 150.9612 218° Southwest 135 155 1,000  Level Aus ATC (RADAR)
Mon 08:52:25 AM -33.9254 150.9495 218° Southwest 158 182 1,200 1,745 Climbing Aus ATC (RADAR)
Mon 08:53:00 AM -33.9529 150.9398 196° South 170 196 2,600 2,067 Climbing Aus ATC (RADAR)
Mon 08:53:55 AM -33.9942 150.9243 197° South 168 193 4,300 1,906 Climbing Aus ATC (RADAR)
Mon 08:54:25 AM -34.0168 150.9161 197° South 170 196 5,300 1,650 Climbing Aus ATC (RADAR)
Mon 08:55:15 AM -34.0581 150.9012 197° South 183 211 6,500 1,569 Climbing Aus ATC (RADAR)
Mon 08:55:30 AM -34.0703 150.8960 200° South 183 211 7,000 1,500 Climbing Aus ATC (RADAR)
Mon 08:55:59 AM -34.0953 150.8842 201° Southwest 189 217 7,600 981 Climbing Aus ATC (RADAR)
Mon 08:57:14 AM -34.1635 150.8547 200° South 214 246 8,700 867 Climbing Aus ATC (RADAR)
Mon 08:57:29 AM -34.1779 150.8483 200° South 216 249 8,900 1,067 Climbing Aus ATC (RADAR)
Mon 08:57:59 AM -34.2075 150.8365 198° South 223 257 9,500 1,200 Climbing Aus ATC (RADAR)
Mon 08:58:49 AM -34.2565 150.8186 197° South 222 255 10,500 1,129 Climbing Aus ATC (RADAR)
Mon 08:59:24 AM -34.2902 150.8048 199° South 220 253 11,100 847 Climbing Aus ATC (RADAR)
Mon 09:00:14 AM -34.3343 150.7755 209° Southwest 220 253 11,700 733 Climbing Aus ATC (RADAR)
Mon 09:00:54 AM -34.3582 150.7352 234° Southwest 214 246 12,200 743 Climbing Aus ATC (RADAR)
Mon 09:01:59 AM -34.3963 150.6720 234° Southwest 210 242 13,000 745 Climbing Aus ATC (RADAR)
Mon 09:03:19 AM -34.4418 150.5900 236° Southwest 217 250 14,000 500 Climbing Aus ATC (RADAR)
Mon 09:03:59 AM -34.4679 150.5481 233° Southwest 231 266 14,000  Level Aus ATC (RADAR)
Mon 09:05:04 AM -34.5128 150.4768 233° Southwest 244 281 14,000  Level Aus ATC (RADAR)
Mon 09:06:19 AM -34.5636 150.3918 234° Southwest 244 281 14,000  Level Aus ATC (RADAR)
Mon 09:07:13 AM -34.6004 150.3294 234° Southwest 244 281 14,000  Level Aus ATC (RADAR)
Mon 09:08:13 AM -34.6420 150.2608 234° Southwest 249 287 14,000  Level Aus ATC (RADAR)
Mon 09:09:33 AM -34.6952 150.1663 236° Southwest 251 289 14,000  Level Aus ATC (RADAR)
Mon 09:10:38 AM -34.7420 150.0917 233° Southwest 252 290 14,000  Level Aus ATC (RADAR)
Mon 09:12:08 AM -34.8063 149.9888 233° Southwest 252 290 14,000  Level Aus ATC (RADAR)
Mon 09:13:08 AM -34.8495 149.9198 233° Southwest 254 292 14,000  Level Aus ATC (RADAR)
Mon 09:14:08 AM -34.8918 149.8516 233° Southwest 249 287 14,000  Level Aus ATC (RADAR)
Mon 09:15:12 AM -34.9396 149.7785 231° Southwest 254 292 14,000  Level Aus ATC (RADAR)
Mon 09:16:12 AM -34.9813 149.7089 234° Southwest 251 289 14,000  Level Aus ATC (RADAR)
Mon 09:17:17 AM -35.0272 149.6326 234° Southwest 252 290 14,000  Level Aus ATC (RADAR)
Mon 09:18:17 AM -35.0714 149.5653 231° Southwest 251 289 14,000  Level Aus ATC (RADAR)
Mon 09:19:17 AM -35.1149 149.4947 233° Southwest 257 296 14,000  Level Aus ATC (RADAR)
Mon 09:20:22 AM -35.1604 149.4181 234° Southwest 254 292 14,000  Level Aus ATC (RADAR)
Mon 09:21:22 AM -35.2025 149.3484 233° Southwest 251 289 14,000  Level Aus ATC (RADAR)
Mon 09:22:27 AM -35.2447 149.2702 237° Southwest 253 291 14,000  Level Aus ATC (RADAR)
Mon 09:23:27 AM -35.2846 149.2001 235° Southwest 246 283 14,000  Level Aus ATC (RADAR)
Mon 09:24:32 AM -35.3279 149.1239 235° Southwest 249 287 14,000  Level Aus ATC (RADAR)
Mon 09:25:31 AM -35.3710 149.0576 231° Southwest 247 284 14,000  Level Aus ATC (RADAR)
Mon 09:26:46 AM -35.4272 148.9720 231° Southwest 255 293 14,000  Level Aus ATC (RADAR)
Mon 09:27:36 AM -35.4628 148.9160 232° Southwest 250 288 14,000  Level Aus ATC (RADAR)
Mon 09:28:36 AM -35.5061 148.8469 232° Southwest 253 291 14,000  Level Aus ATC (RADAR)
Mon 09:29:41 AM -35.5527 148.7725 232° Southwest 253 291 14,000  Level Aus ATC (RADAR)
Mon 09:30:41 AM -35.5954 148.7043 232° Southwest 250 288 14,000  Level Aus ATC (RADAR)
Mon 09:31:51 AM -35.6473 148.6277 230° Southwest 248 285 14,000  Level Aus ATC (RADAR)
Mon 09:32:56 AM -35.6943 148.5561 231° Southwest 248 285 14,000  Level Aus ATC (RADAR)
Mon 09:34:16 AM -35.7533 148.4677 231° Southwest 248 285 14,000  Level Aus ATC (RADAR)
Mon 09:34:56 AM -35.7815 148.4230 232° Southwest 248 285 14,000  Level Aus ATC (RADAR)
Mon 09:36:00 AM -35.8302 148.3529 229° Southwest 246 283 14,000  Level Aus ATC (RADAR)
Mon 09:37:25 AM -35.8909 148.2585 232° Southwest 247 284 14,000  Level Aus ATC (RADAR)
Mon 09:38:10 AM -35.9232 148.2095 231° Southwest 243 280 14,000  Level Aus ATC (RADAR)
Mon 09:39:10 AM -35.9657 148.1423 232° Southwest 246 283 14,000  Level Aus ATC (RADAR)
Mon 09:40:30 AM -36.0240 148.0546 231° Southwest 245 282 14,000  Level Aus ATC (RADAR)
Mon 09:41:30 AM -36.0675 147.9879 231° Southwest 248 285 14,000  Level Aus ATC (RADAR)
Mon 09:42:40 AM -36.1173 147.9099 232° Southwest 247 284 14,000  Level Aus ATC (RADAR)
Mon 09:43:50 AM -36.1674 147.8316 232° Southwest 246 283 14,000  Level Aus ATC (RADAR)
Mon 09:44:50 AM -36.2089 147.7635 233° Southwest 245 282 14,000  Level Aus ATC (RADAR)
Mon 09:45:54 AM -36.2484 147.6830 239° Southwest 246 283 14,000  Level Aus ATC (RADAR)
Mon 09:46:59 AM -36.2876 147.6047 238° Southwest 246 283 14,000  Level Aus ATC (RADAR)
Mon 09:48:04 AM -36.3256 147.5251 239° Southwest 246 283 14,000  Level Aus ATC (RADAR)
Mon 09:49:04 AM -36.3609 147.4527 239° Southwest 244 281 14,000  Level Aus ATC (RADAR)
Mon 09:50:09 AM -36.3994 147.3746 238° Southwest 243 280 14,000  Level Aus ATC (RADAR)
Mon 09:51:14 AM -36.4397 147.2988 237° Southwest 241 277 14,000  Level Aus ATC (RADAR)
Mon 09:52:14 AM -36.4776 147.2290 236° Southwest 243 280 14,000  Level Aus ATC (RADAR)
Mon 09:53:14 AM -36.5165 147.1610 235° Southwest 240 276 14,000  Level Aus ATC (RADAR)
Mon 09:54:19 AM -36.5570 147.0853 236° Southwest 241 277 14,000  Level Aus ATC (RADAR)
Mon 09:55:19 AM -36.5968 147.0169 234° Southwest 243 280 14,000  Level Aus ATC (RADAR)
Mon 09:56:23 AM -36.6378 146.9401 236° Southwest 245 282 14,000  Level Aus ATC (RADAR)
Mon 09:57:28 AM -36.6815 146.8656 234° Southwest 247 284 14,000  Level Aus ATC (RADAR)
Mon 09:58:28 AM -36.7172 146.7936 238° Southwest 245 282 14,000  Level Aus ATC (RADAR)
Mon 09:59:28 AM -36.7553 146.7234 236° Southwest 242 278 14,000  Level Aus ATC (RADAR)
Mon 10:00:33 AM -36.7937 146.6455 238° Southwest 243 280 14,000  Level Aus ATC (RADAR)
Mon 10:01:33 AM -36.8290 146.5728 239° Southwest 244 281 14,000  Level Aus ATC (RADAR)
Mon 10:02:38 AM -36.8692 146.4949 237° Southwest 244 281 14,000 -48 Level Aus ATC (RADAR)
Mon 10:03:38 AM -36.9050 146.4220 238° Southwest 246 283 13,900 -50 Descending Aus ATC (RADAR)
Mon 10:04:38 AM -36.9441 146.3516 235° Southwest 247 284 13,900  Level Aus ATC (RADAR)
Mon 10:05:38 AM -36.9799 146.2789 238° Southwest 244 281 13,900  Level Aus ATC (RADAR)
Mon 10:06:42 AM -37.0201 146.2019 237° Southwest 244 281 13,900  Level Aus ATC (RADAR)
Mon 10:07:42 AM -37.0563 146.1297 238° Southwest 245 282 13,900  Level Aus ATC (RADAR)
Mon 10:08:52 AM -37.1010 146.0475 236° Southwest 245 282 13,900  Level Aus ATC (RADAR)
Mon 10:09:57 AM -37.1415 145.9692 237° Southwest 246 283 13,900  Level Aus ATC (RADAR)
Mon 10:11:02 AM -37.1786 145.8921 239° Southwest 237 273 13,900  Level Aus ATC (RADAR)
Mon 10:13:00 AM -37.2450 145.7615 232° Southwest  Level FlightAware Approximate
Mon 10:20:00 AM -37.4698 145.2852 241° Southwest  Level FlightAware Approximate
Mon 10:21:00 AM -37.4999 145.2154 241° Southwest  Level FlightAware Approximate
Mon 10:22:00 AM -37.5300 145.1456 241° Southwest  Level FlightAware Approximate
Mon 10:23:00 AM -37.5601 145.0757 241° Southwest  Level FlightAware Approximate
Mon 10:24:00 AM -37.5901 145.0058 242° Southwest  Level FlightAware Approximate
Mon 10:25:00 AM -37.6201 144.9358 242° Southwest  Level FlightAware Approximate
Mon 10:26:00 AM -37.6500 144.8657 242° Southwest  Level FlightAware Approximate
Mon 10:27:00 AM -37.6734 144.8434 176° South  Level FlightAware Approximate
Mon 10:28:00 AM -37.6733 144.8433 176° South  Level Estimated
Mon 10:29:00 AM -37.6733 144.8433 176° South  Level Estimated
Mon 10:30:00 AM -37.6733 144.8433 176° South  Level Estimated
Mon 10:31:00 AM -37.6733 144.8433 176° South  Level Estimated
Mon 10:32:00 AM -37.6733 144.8433 176° South  Level Estimated
Mon 10:33:00 AM -37.6733 144.8433 176° South  Level Estimated
Mon 10:34:00 AM -37.6733 144.8433 176° South  Level Estimated
Mon 10:35:00 AM -37.6733 144.8433 176° South  Level Estimated
Mon 10:36:00 AM -37.6733 144.8433 176° South  Level Estimated
Mon 10:37:00 AM -37.6733 144.8433 176° South  Level Estimated
Mon 10:38:00 AM -37.6733 144.8433 176° South  Level Estimated
Mon 10:39:00 AM -37.6733 144.8433 176° South  Level Estimated
Mon 10:40:00 AM -37.6733 144.8433 176° South  Level Estimated
Mon 10:41:00 AM -37.6733 144.8433 176° South  Level Estimated
Mon 10:42:00 AM -37.6733 144.8433 176° South  Level Estimated
Mon 10:43:00 AM -37.6733 144.8433 176° South  Level Estimated
Mon 10:44:00 AM -37.6733 144.8433 176° South  Level Estimated
Mon 10:45:00 AM -37.6733 144.8433 176° South  Level Estimated
Mon 10:46:00 AM -37.6733 144.8433 176° South  Level Estimated
Mon 10:47:00 AM -37.6733 144.8433 176° South  Level Estimated

Login

Don't have an account? Register now (free) for customized features, flight alerts, and more!